sensor_id;sensor_type;location;lat;lon;timestamp;temperature;humidity
22108;DHT22;11220;48.812;9.128;2023-04-20T00:02:19;17.80;75.50
22108;DHT22;11220;48.812;9.128;2023-04-20T00:04:45;17.80;75.50
22108;DHT22;11220;48.812;9.128;2023-04-20T00:07:11;17.80;75.50
22108;DHT22;11220;48.812;9.128;2023-04-20T00:09:37;17.80;75.50
22108;DHT22;11220;48.812;9.128;2023-04-20T00:12:03;17.70;75.40
22108;DHT22;11220;48.812;9.128;2023-04-20T00:14:28;17.80;75.90
22108;DHT22;11220;48.812;9.128;2023-04-20T00:16:54;17.80;75.50
22108;DHT22;11220;48.812;9.128;2023-04-20T00:19:20;17.70;75.40
22108;DHT22;11220;48.812;9.128;2023-04-20T00:21:46;17.80;75.50
22108;DHT22;11220;48.812;9.128;2023-04-20T00:24:11;17.70;75.40
22108;DHT22;11220;48.812;9.128;2023-04-20T00:26:37;17.70;75.30
22108;DHT22;11220;48.812;9.128;2023-04-20T00:29:03;17.70;75.30
22108;DHT22;11220;48.812;9.128;2023-04-20T00:31:29;17.70;75.30
22108;DHT22;11220;48.812;9.128;2023-04-20T00:33:55;17.70;75.30
22108;DHT22;11220;48.812;9.128;2023-04-20T00:36:20;17.70;75.30
22108;DHT22;11220;48.812;9.128;2023-04-20T00:38:46;17.70;75.30
22108;DHT22;11220;48.812;9.128;2023-04-20T00:41:11;17.70;75.30
22108;DHT22;11220;48.812;9.128;2023-04-20T00:43:37;17.70;75.20
22108;DHT22;11220;48.812;9.128;2023-04-20T00:46:13;17.70;75.20
22108;DHT22;11220;48.812;9.128;2023-04-20T00:48:38;17.70;75.20
22108;DHT22;11220;48.812;9.128;2023-04-20T00:51:04;17.60;75.10
22108;DHT22;11220;48.812;9.128;2023-04-20T00:53:29;17.60;75.10
22108;DHT22;11220;48.812;9.128;2023-04-20T00:55:55;17.60;75.10
22108;DHT22;11220;48.812;9.128;2023-04-20T00:58:21;17.60;75.10
22108;DHT22;11220;48.812;9.128;2023-04-20T01:00:47;18.00;75.40
22108;DHT22;11220;48.812;9.128;2023-04-20T01:03:12;17.60;75.00
22108;DHT22;11220;48.812;9.128;2023-04-20T01:05:39;17.60;75.10
22108;DHT22;11220;48.812;9.128;2023-04-20T01:08:05;17.60;75.00
22108;DHT22;11220;48.812;9.128;2023-04-20T01:10:31;17.60;75.00
22108;DHT22;11220;48.812;9.128;2023-04-20T01:12:57;17.60;75.00
22108;DHT22;11220;48.812;9.128;2023-04-20T01:15:24;17.60;75.00
22108;DHT22;11220;48.812;9.128;2023-04-20T01:17:50;17.60;75.00
22108;DHT22;11220;48.812;9.128;2023-04-20T01:20:16;17.50;74.90
22108;DHT22;11220;48.812;9.128;2023-04-20T01:22:49;17.50;74.90
22108;DHT22;11220;48.812;9.128;2023-04-20T01:25:15;17.50;75.00
22108;DHT22;11220;48.812;9.128;2023-04-20T01:27:42;17.50;74.90
22108;DHT22;11220;48.812;9.128;2023-04-20T01:30:08;17.50;74.80
22108;DHT22;11220;48.812;9.128;2023-04-20T01:32:34;17.50;74.90
22108;DHT22;11220;48.812;9.128;2023-04-20T01:35:00;17.50;74.80
22108;DHT22;11220;48.812;9.128;2023-04-20T01:37:26;17.50;74.70
22108;DHT22;11220;48.812;9.128;2023-04-20T01:39:52;17.50;74.70
22108;DHT22;11220;48.812;9.128;2023-04-20T01:42:17;17.50;74.60
22108;DHT22;11220;48.812;9.128;2023-04-20T01:44:43;17.50;74.60
22108;DHT22;11220;48.812;9.128;2023-04-20T01:47:08;17.50;74.60
22108;DHT22;11220;48.812;9.128;2023-04-20T01:49:34;17.40;74.40
22108;DHT22;11220;48.812;9.128;2023-04-20T01:52:00;17.50;75.50
22108;DHT22;11220;48.812;9.128;2023-04-20T01:54:25;17.40;74.40
22108;DHT22;11220;48.812;9.128;2023-04-20T01:56:51;17.40;74.40
22108;DHT22;11220;48.812;9.128;2023-04-20T01:59:16;17.50;74.60
22108;DHT22;11220;48.812;9.128;2023-04-20T02:01:42;17.40;74.40
22108;DHT22;11220;48.812;9.128;2023-04-20T02:04:07;17.40;74.40
22108;DHT22;11220;48.812;9.128;2023-04-20T02:06:33;17.40;74.30
22108;DHT22;11220;48.812;9.128;2023-04-20T02:08:58;17.40;74.40
22108;DHT22;11220;48.812;9.128;2023-04-20T02:11:24;17.40;74.40
22108;DHT22;11220;48.812;9.128;2023-04-20T02:13:50;17.40;74.30
22108;DHT22;11220;48.812;9.128;2023-04-20T02:16:16;17.40;74.40
22108;DHT22;11220;48.812;9.128;2023-04-20T02:18:43;17.40;75.20
22108;DHT22;11220;48.812;9.128;2023-04-20T02:21:10;17.30;74.20
22108;DHT22;11220;48.812;9.128;2023-04-20T02:23:35;17.30;74.20
22108;DHT22;11220;48.812;9.128;2023-04-20T02:26:01;17.40;74.20
22108;DHT22;11220;48.812;9.128;2023-04-20T02:28:27;17.30;74.20
22108;DHT22;11220;48.812;9.128;2023-04-20T02:30:52;17.30;74.10
22108;DHT22;11220;48.812;9.128;2023-04-20T02:33:18;17.30;74.10
22108;DHT22;11220;48.812;9.128;2023-04-20T02:35:45;17.30;74.10
22108;DHT22;11220;48.812;9.128;2023-04-20T02:38:11;17.30;74.00
22108;DHT22;11220;48.812;9.128;2023-04-20T02:40:36;17.30;74.00
22108;DHT22;11220;48.812;9.128;2023-04-20T02:43:02;17.30;74.00
22108;DHT22;11220;48.812;9.128;2023-04-20T02:45:27;17.30;74.10
22108;DHT22;11220;48.812;9.128;2023-04-20T02:47:53;17.30;74.10
22108;DHT22;11220;48.812;9.128;2023-04-20T02:50:18;17.30;73.90
22108;DHT22;11220;48.812;9.128;2023-04-20T02:52:44;17.30;73.80
22108;DHT22;11220;48.812;9.128;2023-04-20T02:55:09;17.30;73.70
22108;DHT22;11220;48.812;9.128;2023-04-20T02:57:35;17.30;73.70
22108;DHT22;11220;48.812;9.128;2023-04-20T03:00:01;17.30;73.50
22108;DHT22;11220;48.812;9.128;2023-04-20T03:02:26;17.30;73.50
22108;DHT22;11220;48.812;9.128;2023-04-20T03:04:52;17.30;73.50
22108;DHT22;11220;48.812;9.128;2023-04-20T03:07:17;17.20;73.20
22108;DHT22;11220;48.812;9.128;2023-04-20T03:09:43;17.30;73.20
22108;DHT22;11220;48.812;9.128;2023-04-20T03:12:09;17.20;73.10
22108;DHT22;11220;48.812;9.128;2023-04-20T03:14:35;17.20;73.10
22108;DHT22;11220;48.812;9.128;2023-04-20T03:17:00;17.20;73.00
22108;DHT22;11220;48.812;9.128;2023-04-20T03:19:26;17.20;73.00
22108;DHT22;11220;48.812;9.128;2023-04-20T03:21:51;17.20;73.00
22108;DHT22;11220;48.812;9.128;2023-04-20T03:24:17;17.20;73.00
22108;DHT22;11220;48.812;9.128;2023-04-20T03:26:43;17.20;72.90
22108;DHT22;11220;48.812;9.128;2023-04-20T03:29:09;17.20;73.00
22108;DHT22;11220;48.812;9.128;2023-04-20T03:31:34;17.10;72.90
22108;DHT22;11220;48.812;9.128;2023-04-20T03:34:00;17.20;73.00
22108;DHT22;11220;48.812;9.128;2023-04-20T03:36:25;17.20;73.00
22108;DHT22;11220;48.812;9.128;2023-04-20T03:38:52;17.20;72.90
22108;DHT22;11220;48.812;9.128;2023-04-20T03:41:18;17.20;72.90
22108;DHT22;11220;48.812;9.128;2023-04-20T03:43:43;17.20;72.90
22108;DHT22;11220;48.812;9.128;2023-04-20T03:46:09;17.10;72.80
22108;DHT22;11220;48.812;9.128;2023-04-20T03:48:34;17.10;72.80
22108;DHT22;11220;48.812;9.128;2023-04-20T03:51:00;17.10;72.80
22108;DHT22;11220;48.812;9.128;2023-04-20T03:53:25;17.10;72.80
22108;DHT22;11220;48.812;9.128;2023-04-20T03:55:53;17.10;72.80
22108;DHT22;11220;48.812;9.128;2023-04-20T03:58:19;17.10;72.80
22108;DHT22;11220;48.812;9.128;2023-04-20T04:00:45;17.10;72.70
22108;DHT22;11220;48.812;9.128;2023-04-20T04:03:10;17.10;72.60
22108;DHT22;11220;48.812;9.128;2023-04-20T04:05:36;17.10;72.60
22108;DHT22;11220;48.812;9.128;2023-04-20T04:08:02;17.10;72.60
22108;DHT22;11220;48.812;9.128;2023-04-20T04:10:27;17.10;72.50
22108;DHT22;11220;48.812;9.128;2023-04-20T04:12:53;17.00;72.50
22108;DHT22;11220;48.812;9.128;2023-04-20T04:15:18;17.00;72.60
22108;DHT22;11220;48.812;9.128;2023-04-20T04:17:44;17.00;72.60
22108;DHT22;11220;48.812;9.128;2023-04-20T04:20:10;17.00;72.40
22108;DHT22;11220;48.812;9.128;2023-04-20T04:22:36;17.00;72.40
22108;DHT22;11220;48.812;9.128;2023-04-20T04:25:02;17.00;72.40
22108;DHT22;11220;48.812;9.128;2023-04-20T04:27:28;17.00;72.40
22108;DHT22;11220;48.812;9.128;2023-04-20T04:30:02;17.00;72.40
22108;DHT22;11220;48.812;9.128;2023-04-20T04:32:27;17.00;72.40
22108;DHT22;11220;48.812;9.128;2023-04-20T04:34:53;17.00;72.30
22108;DHT22;11220;48.812;9.128;2023-04-20T04:37:19;17.00;72.30
22108;DHT22;11220;48.812;9.128;2023-04-20T04:39:45;17.00;72.30
22108;DHT22;11220;48.812;9.128;2023-04-20T04:42:10;17.00;72.20
22108;DHT22;11220;48.812;9.128;2023-04-20T04:44:36;17.70;72.70
22108;DHT22;11220;48.812;9.128;2023-04-20T04:47:02;17.00;72.40
22108;DHT22;11220;48.812;9.128;2023-04-20T04:49:30;17.00;72.60
22108;DHT22;11220;48.812;9.128;2023-04-20T04:51:55;17.00;72.70
22108;DHT22;11220;48.812;9.128;2023-04-20T04:54:21;17.00;72.80
22108;DHT22;11220;48.812;9.128;2023-04-20T04:56:46;17.00;72.90
22108;DHT22;11220;48.812;9.128;2023-04-20T04:59:12;17.00;73.00
22108;DHT22;11220;48.812;9.128;2023-04-20T05:01:37;17.00;73.10
22108;DHT22;11220;48.812;9.128;2023-04-20T05:04:03;17.10;73.30
22108;DHT22;11220;48.812;9.128;2023-04-20T05:06:28;17.10;73.40
22108;DHT22;11220;48.812;9.128;2023-04-20T05:08:54;17.10;73.60
22108;DHT22;11220;48.812;9.128;2023-04-20T05:11:19;17.10;73.70
22108;DHT22;11220;48.812;9.128;2023-04-20T05:13:45;17.10;73.80
22108;DHT22;11220;48.812;9.128;2023-04-20T05:16:10;17.10;73.90
22108;DHT22;11220;48.812;9.128;2023-04-20T05:18:36;17.20;73.90
22108;DHT22;11220;48.812;9.128;2023-04-20T05:21:01;17.20;74.00
22108;DHT22;11220;48.812;9.128;2023-04-20T05:23:27;17.20;74.00
22108;DHT22;11220;48.812;9.128;2023-04-20T05:25:52;17.30;74.10
22108;DHT22;11220;48.812;9.128;2023-04-20T05:28:18;17.30;74.10
22108;DHT22;11220;48.812;9.128;2023-04-20T05:30:43;17.30;74.10
22108;DHT22;11220;48.812;9.128;2023-04-20T05:33:09;17.30;74.00
22108;DHT22;11220;48.812;9.128;2023-04-20T05:35:35;17.40;73.90
22108;DHT22;11220;48.812;9.128;2023-04-20T05:38:00;17.40;73.60
22108;DHT22;11220;48.812;9.128;2023-04-20T05:40:30;17.40;73.50
22108;DHT22;11220;48.812;9.128;2023-04-20T05:42:56;17.40;73.30
22108;DHT22;11220;48.812;9.128;2023-04-20T05:45:21;17.40;73.20
22108;DHT22;11220;48.812;9.128;2023-04-20T05:47:54;17.50;73.10
22108;DHT22;11220;48.812;9.128;2023-04-20T05:50:20;17.50;73.00
22108;DHT22;11220;48.812;9.128;2023-04-20T05:52:47;17.50;72.90
22108;DHT22;11220;48.812;9.128;2023-04-20T05:55:12;17.50;72.80
22108;DHT22;11220;48.812;9.128;2023-04-20T05:57:38;17.50;72.70
22108;DHT22;11220;48.812;9.128;2023-04-20T06:00:11;17.60;72.70
22108;DHT22;11220;48.812;9.128;2023-04-20T06:02:37;17.60;72.60
22108;DHT22;11220;48.812;9.128;2023-04-20T06:05:03;17.60;72.60
22108;DHT22;11220;48.812;9.128;2023-04-20T06:07:28;17.60;72.50
22108;DHT22;11220;48.812;9.128;2023-04-20T06:09:54;17.70;72.50
22108;DHT22;11220;48.812;9.128;2023-04-20T06:12:19;17.70;72.40
22108;DHT22;11220;48.812;9.128;2023-04-20T06:14:45;17.70;72.40
22108;DHT22;11220;48.812;9.128;2023-04-20T06:17:10;17.70;72.30
22108;DHT22;11220;48.812;9.128;2023-04-20T06:19:36;17.70;72.30
22108;DHT22;11220;48.812;9.128;2023-04-20T06:22:08;17.70;72.30
22108;DHT22;11220;48.812;9.128;2023-04-20T06:24:34;17.70;72.30
22108;DHT22;11220;48.812;9.128;2023-04-20T06:27:00;17.70;72.30
22108;DHT22;11220;48.812;9.128;2023-04-20T06:29:26;17.70;72.30
22108;DHT22;11220;48.812;9.128;2023-04-20T06:31:52;17.70;72.30
22108;DHT22;11220;48.812;9.128;2023-04-20T06:34:18;17.70;72.30
22108;DHT22;11220;48.812;9.128;2023-04-20T06:36:43;17.70;72.30
22108;DHT22;11220;48.812;9.128;2023-04-20T06:39:09;17.80;72.30
22108;DHT22;11220;48.812;9.128;2023-04-20T06:41:36;17.80;72.40
22108;DHT22;11220;48.812;9.128;2023-04-20T06:44:03;17.80;72.40
22108;DHT22;11220;48.812;9.128;2023-04-20T06:46:28;17.80;72.40
22108;DHT22;11220;48.812;9.128;2023-04-20T06:48:54;17.80;72.40
22108;DHT22;11220;48.812;9.128;2023-04-20T06:51:20;17.80;72.50
22108;DHT22;11220;48.812;9.128;2023-04-20T06:53:46;17.80;72.50
22108;DHT22;11220;48.812;9.128;2023-04-20T06:56:11;17.80;72.50
22108;DHT22;11220;48.812;9.128;2023-04-20T06:58:37;17.80;72.50
22108;DHT22;11220;48.812;9.128;2023-04-20T07:01:02;17.80;72.50
22108;DHT22;11220;48.812;9.128;2023-04-20T07:03:28;17.90;72.60
22108;DHT22;11220;48.812;9.128;2023-04-20T07:05:54;17.80;72.50
22108;DHT22;11220;48.812;9.128;2023-04-20T07:08:19;18.00;72.70
22108;DHT22;11220;48.812;9.128;2023-04-20T07:10:45;17.80;72.60
22108;DHT22;11220;48.812;9.128;2023-04-20T07:13:10;17.80;72.50
22108;DHT22;11220;48.812;9.128;2023-04-20T07:15:36;17.80;72.60
22108;DHT22;11220;48.812;9.128;2023-04-20T07:18:02;18.80;73.20
22108;DHT22;11220;48.812;9.128;2023-04-20T07:20:27;17.90;72.70
22108;DHT22;11220;48.812;9.128;2023-04-20T07:22:53;17.90;72.70
22108;DHT22;11220;48.812;9.128;2023-04-20T07:25:18;17.90;72.70
22108;DHT22;11220;48.812;9.128;2023-04-20T07:27:44;17.90;72.70
22108;DHT22;11220;48.812;9.128;2023-04-20T07:30:10;17.90;72.70
22108;DHT22;11220;48.812;9.128;2023-04-20T07:32:37;17.90;72.80
22108;DHT22;11220;48.812;9.128;2023-04-20T07:35:03;17.90;72.80
22108;DHT22;11220;48.812;9.128;2023-04-20T07:37:29;17.90;73.00
22108;DHT22;11220;48.812;9.128;2023-04-20T07:39:56;17.90;73.10
22108;DHT22;11220;48.812;9.128;2023-04-20T07:42:21;17.90;73.30
22108;DHT22;11220;48.812;9.128;2023-04-20T07:44:47;17.90;73.40
22108;DHT22;11220;48.812;9.128;2023-04-20T07:47:13;17.90;73.40
22108;DHT22;11220;48.812;9.128;2023-04-20T07:49:39;17.90;73.50
22108;DHT22;11220;48.812;9.128;2023-04-20T07:52:05;17.90;73.40
22108;DHT22;11220;48.812;9.128;2023-04-20T07:54:31;17.90;73.50
22108;DHT22;11220;48.812;9.128;2023-04-20T07:56:57;18.00;73.50
22108;DHT22;11220;48.812;9.128;2023-04-20T07:59:23;18.00;73.50
22108;DHT22;11220;48.812;9.128;2023-04-20T08:01:48;18.00;73.50
22108;DHT22;11220;48.812;9.128;2023-04-20T08:04:15;18.00;73.50
22108;DHT22;11220;48.812;9.128;2023-04-20T08:06:40;18.00;73.50
22108;DHT22;11220;48.812;9.128;2023-04-20T08:09:06;18.00;73.50
22108;DHT22;11220;48.812;9.128;2023-04-20T08:11:32;18.00;73.40
22108;DHT22;11220;48.812;9.128;2023-04-20T08:13:58;18.00;73.50
22108;DHT22;11220;48.812;9.128;2023-04-20T08:16:23;18.10;73.50
22108;DHT22;11220;48.812;9.128;2023-04-20T08:18:49;18.10;73.50
22108;DHT22;11220;48.812;9.128;2023-04-20T08:21:14;18.10;73.50
22108;DHT22;11220;48.812;9.128;2023-04-20T08:23:40;18.10;73.40
22108;DHT22;11220;48.812;9.128;2023-04-20T08:26:05;18.10;73.40
22108;DHT22;11220;48.812;9.128;2023-04-20T08:28:31;18.10;73.40
22108;DHT22;11220;48.812;9.128;2023-04-20T08:30:56;18.60;73.70
22108;DHT22;11220;48.812;9.128;2023-04-20T08:33:22;18.20;73.50
22108;DHT22;11220;48.812;9.128;2023-04-20T08:35:49;18.20;73.50
22108;DHT22;11220;48.812;9.128;2023-04-20T08:38:16;18.20;73.50
22108;DHT22;11220;48.812;9.128;2023-04-20T08:40:42;18.20;73.40
22108;DHT22;11220;48.812;9.128;2023-04-20T08:43:08;18.20;73.40
22108;DHT22;11220;48.812;9.128;2023-04-20T08:45:34;18.20;73.50
22108;DHT22;11220;48.812;9.128;2023-04-20T08:48:23;18.20;72.60
22108;DHT22;11220;48.812;9.128;2023-04-20T08:50:59;20.00;67.80
22108;DHT22;11220;48.812;9.128;2023-04-20T08:53:46;19.40;64.10
22108;DHT22;11220;48.812;9.128;2023-04-20T08:56:20;17.00;61.20
22108;DHT22;11220;48.812;9.128;2023-04-20T08:59:04;16.80;60.80
22108;DHT22;11220;48.812;9.128;2023-04-20T09:01:44;16.50;61.10
22108;DHT22;11220;48.812;9.128;2023-04-20T09:04:25;16.30;63.70
22108;DHT22;11220;48.812;9.128;2023-04-20T09:06:54;16.10;62.50
22108;DHT22;11220;48.812;9.128;2023-04-20T09:09:22;16.00;64.80
22108;DHT22;11220;48.812;9.128;2023-04-20T09:12:05;16.10;66.50
22108;DHT22;11220;48.812;9.128;2023-04-20T09:14:45;16.20;67.70
22108;DHT22;11220;48.812;9.128;2023-04-20T09:17:12;16.30;66.90
22108;DHT22;11220;48.812;9.128;2023-04-20T09:19:39;16.30;67.10
22108;DHT22;11220;48.812;9.128;2023-04-20T09:22:05;16.50;68.00
22108;DHT22;11220;48.812;9.128;2023-04-20T09:24:36;17.30;69.30
22108;DHT22;11220;48.812;9.128;2023-04-20T09:27:13;16.70;69.30
22108;DHT22;11220;48.812;9.128;2023-04-20T09:29:40;16.80;69.70
22108;DHT22;11220;48.812;9.128;2023-04-20T09:32:05;16.90;70.00
22108;DHT22;11220;48.812;9.128;2023-04-20T09:34:41;17.00;70.20
22108;DHT22;11220;48.812;9.128;2023-04-20T09:37:08;17.10;70.40
22108;DHT22;11220;48.812;9.128;2023-04-20T09:39:36;17.20;70.60
22108;DHT22;11220;48.812;9.128;2023-04-20T09:42:06;17.30;70.80
22108;DHT22;11220;48.812;9.128;2023-04-20T09:44:37;17.30;70.70
22108;DHT22;11220;48.812;9.128;2023-04-20T09:47:03;17.40;70.80
22108;DHT22;11220;48.812;9.128;2023-04-20T09:49:29;17.40;70.80
22108;DHT22;11220;48.812;9.128;2023-04-20T09:51:55;17.40;70.90
22108;DHT22;11220;48.812;9.128;2023-04-20T09:54:22;17.50;70.90
22108;DHT22;11220;48.812;9.128;2023-04-20T09:56:48;17.50;71.00
22108;DHT22;11220;48.812;9.128;2023-04-20T09:59:16;17.60;71.10
22108;DHT22;11220;48.812;9.128;2023-04-20T10:01:43;17.60;71.10
22108;DHT22;11220;48.812;9.128;2023-04-20T10:04:09;17.60;71.20
22108;DHT22;11220;48.812;9.128;2023-04-20T10:06:36;17.60;71.20
22108;DHT22;11220;48.812;9.128;2023-04-20T10:09:04;17.70;71.30
22108;DHT22;11220;48.812;9.128;2023-04-20T10:11:31;17.70;72.30
22108;DHT22;11220;48.812;9.128;2023-04-20T10:13:58;17.70;71.40
22108;DHT22;11220;48.812;9.128;2023-04-20T10:16:24;17.70;71.40
22108;DHT22;11220;48.812;9.128;2023-04-20T10:19:01;17.70;71.50
22108;DHT22;11220;48.812;9.128;2023-04-20T10:21:31;17.70;71.50
22108;DHT22;11220;48.812;9.128;2023-04-20T10:23:58;17.70;71.60
22108;DHT22;11220;48.812;9.128;2023-04-20T10:26:37;17.80;71.70
22108;DHT22;11220;48.812;9.128;2023-04-20T10:29:03;17.80;71.80
22108;DHT22;11220;48.812;9.128;2023-04-20T10:31:39;17.80;71.80
22108;DHT22;11220;48.812;9.128;2023-04-20T10:34:06;17.80;72.70
22108;DHT22;11220;48.812;9.128;2023-04-20T10:36:36;17.80;71.80
22108;DHT22;11220;48.812;9.128;2023-04-20T10:39:16;17.80;71.90
22108;DHT22;11220;48.812;9.128;2023-04-20T10:41:54;17.80;72.90
22108;DHT22;11220;48.812;9.128;2023-04-20T10:44:25;17.80;72.00
22108;DHT22;11220;48.812;9.128;2023-04-20T10:46:52;17.90;72.10
22108;DHT22;11220;48.812;9.128;2023-04-20T10:49:17;17.90;72.20
22108;DHT22;11220;48.812;9.128;2023-04-20T10:51:50;17.90;72.20
22108;DHT22;11220;48.812;9.128;2023-04-20T10:54:16;17.90;72.20
22108;DHT22;11220;48.812;9.128;2023-04-20T10:56:46;18.00;72.30
22108;DHT22;11220;48.812;9.128;2023-04-20T10:59:14;17.90;72.30
22108;DHT22;11220;48.812;9.128;2023-04-20T11:01:40;18.00;72.40
22108;DHT22;11220;48.812;9.128;2023-04-20T11:04:07;18.00;72.40
22108;DHT22;11220;48.812;9.128;2023-04-20T11:06:33;18.10;72.50
22108;DHT22;11220;48.812;9.128;2023-04-20T11:08:59;18.10;72.50
22108;DHT22;11220;48.812;9.128;2023-04-20T11:11:26;19.30;73.40
22108;DHT22;11220;48.812;9.128;2023-04-20T11:14:04;18.10;72.50
22108;DHT22;11220;48.812;9.128;2023-04-20T11:16:31;18.10;72.50
22108;DHT22;11220;48.812;9.128;2023-04-20T11:18:56;18.20;72.60
22108;DHT22;11220;48.812;9.128;2023-04-20T11:21:22;18.20;72.60
22108;DHT22;11220;48.812;9.128;2023-04-20T11:23:48;18.20;72.60
22108;DHT22;11220;48.812;9.128;2023-04-20T11:26:15;18.20;72.60
22108;DHT22;11220;48.812;9.128;2023-04-20T11:28:51;18.10;72.60
22108;DHT22;11220;48.812;9.128;2023-04-20T11:31:17;18.20;72.60
22108;DHT22;11220;48.812;9.128;2023-04-20T11:33:43;18.20;72.60
22108;DHT22;11220;48.812;9.128;2023-04-20T11:36:18;18.20;72.60
22108;DHT22;11220;48.812;9.128;2023-04-20T11:38:43;18.20;72.60
22108;DHT22;11220;48.812;9.128;2023-04-20T11:41:10;18.30;72.80
22108;DHT22;11220;48.812;9.128;2023-04-20T11:43:35;18.30;72.80
22108;DHT22;11220;48.812;9.128;2023-04-20T11:46:01;18.30;72.90
22108;DHT22;11220;48.812;9.128;2023-04-20T11:48:30;18.30;72.90
22108;DHT22;11220;48.812;9.128;2023-04-20T11:50:56;18.30;73.00
22108;DHT22;11220;48.812;9.128;2023-04-20T11:53:22;18.30;73.00
22108;DHT22;11220;48.812;9.128;2023-04-20T11:55:47;18.30;73.10
22108;DHT22;11220;48.812;9.128;2023-04-20T11:58:13;18.80;73.40
22108;DHT22;11220;48.812;9.128;2023-04-20T12:00:39;18.70;73.40
22108;DHT22;11220;48.812;9.128;2023-04-20T12:03:05;18.30;73.10
22108;DHT22;11220;48.812;9.128;2023-04-20T12:05:30;18.30;73.20
22108;DHT22;11220;48.812;9.128;2023-04-20T12:07:56;18.30;73.20
22108;DHT22;11220;48.812;9.128;2023-04-20T12:10:21;18.30;73.20
22108;DHT22;11220;48.812;9.128;2023-04-20T12:12:47;18.30;73.20
22108;DHT22;11220;48.812;9.128;2023-04-20T12:15:13;18.30;73.20
22108;DHT22;11220;48.812;9.128;2023-04-20T12:17:38;18.20;73.20
22108;DHT22;11220;48.812;9.128;2023-04-20T12:20:04;18.30;73.20
22108;DHT22;11220;48.812;9.128;2023-04-20T12:22:33;18.30;73.20
22108;DHT22;11220;48.812;9.128;2023-04-20T12:24:59;18.30;73.30
22108;DHT22;11220;48.812;9.128;2023-04-20T12:27:25;18.70;73.50
22108;DHT22;11220;48.812;9.128;2023-04-20T12:29:52;18.30;73.30
22108;DHT22;11220;48.812;9.128;2023-04-20T12:32:17;18.30;73.30
22108;DHT22;11220;48.812;9.128;2023-04-20T12:34:43;18.30;73.40
22108;DHT22;11220;48.812;9.128;2023-04-20T12:37:08;18.30;73.40
22108;DHT22;11220;48.812;9.128;2023-04-20T12:39:34;18.30;73.40
22108;DHT22;11220;48.812;9.128;2023-04-20T12:41:59;18.30;73.40
22108;DHT22;11220;48.812;9.128;2023-04-20T12:44:26;18.30;74.40
22108;DHT22;11220;48.812;9.128;2023-04-20T12:46:52;19.30;74.10
22108;DHT22;11220;48.812;9.128;2023-04-20T12:49:17;18.40;73.60
22108;DHT22;11220;48.812;9.128;2023-04-20T12:51:43;18.30;73.50
22108;DHT22;11220;48.812;9.128;2023-04-20T12:54:08;19.10;74.00
22108;DHT22;11220;48.812;9.128;2023-04-20T12:56:35;19.90;74.60
22108;DHT22;11220;48.812;9.128;2023-04-20T12:59:00;18.40;73.60
22108;DHT22;11220;48.812;9.128;2023-04-20T13:01:26;18.90;74.00
22108;DHT22;11220;48.812;9.128;2023-04-20T13:03:51;18.30;73.70
22108;DHT22;11220;48.812;9.128;2023-04-20T13:06:17;18.60;73.90
22108;DHT22;11220;48.812;9.128;2023-04-20T13:08:42;18.30;73.80
22108;DHT22;11220;48.812;9.128;2023-04-20T13:11:10;18.30;73.80
22108;DHT22;11220;48.812;9.128;2023-04-20T13:13:36;18.70;74.10
22108;DHT22;11220;48.812;9.128;2023-04-20T13:16:02;18.40;73.90
22108;DHT22;11220;48.812;9.128;2023-04-20T13:18:27;18.30;73.90
22108;DHT22;11220;48.812;9.128;2023-04-20T13:20:53;18.30;73.90
22108;DHT22;11220;48.812;9.128;2023-04-20T13:23:18;18.30;73.90
22108;DHT22;11220;48.812;9.128;2023-04-20T13:25:44;18.30;73.90
22108;DHT22;11220;48.812;9.128;2023-04-20T13:28:10;18.30;74.00
22108;DHT22;11220;48.812;9.128;2023-04-20T13:30:36;18.30;73.90
22108;DHT22;11220;48.812;9.128;2023-04-20T13:33:03;18.30;74.00
22108;DHT22;11220;48.812;9.128;2023-04-20T13:35:28;18.30;74.00
22108;DHT22;11220;48.812;9.128;2023-04-20T13:37:54;18.70;74.20
22108;DHT22;11220;48.812;9.128;2023-04-20T13:40:20;18.30;74.00
22108;DHT22;11220;48.812;9.128;2023-04-20T13:42:45;18.60;74.20
22108;DHT22;11220;48.812;9.128;2023-04-20T13:45:11;18.30;74.10
22108;DHT22;11220;48.812;9.128;2023-04-20T13:47:38;18.30;74.00
22108;DHT22;11220;48.812;9.128;2023-04-20T13:50:05;18.40;74.10
22108;DHT22;11220;48.812;9.128;2023-04-20T13:52:30;18.30;74.10
22108;DHT22;11220;48.812;9.128;2023-04-20T13:54:56;18.30;74.10
22108;DHT22;11220;48.812;9.128;2023-04-20T13:57:22;18.30;74.10
22108;DHT22;11220;48.812;9.128;2023-04-20T13:59:47;18.30;74.10
22108;DHT22;11220;48.812;9.128;2023-04-20T14:02:13;18.80;74.50
22108;DHT22;11220;48.812;9.128;2023-04-20T14:04:38;18.30;74.10
22108;DHT22;11220;48.812;9.128;2023-04-20T14:07:04;18.30;74.10
22108;DHT22;11220;48.812;9.128;2023-04-20T14:09:30;18.30;74.10
22108;DHT22;11220;48.812;9.128;2023-04-20T14:11:56;18.30;74.10
22108;DHT22;11220;48.812;9.128;2023-04-20T14:14:22;18.30;74.10
22108;DHT22;11220;48.812;9.128;2023-04-20T14:16:48;18.40;74.30
22108;DHT22;11220;48.812;9.128;2023-04-20T14:19:14;18.30;74.10
22108;DHT22;11220;48.812;9.128;2023-04-20T14:21:40;18.30;74.10
22108;DHT22;11220;48.812;9.128;2023-04-20T14:24:09;18.40;74.30
22108;DHT22;11220;48.812;9.128;2023-04-20T14:26:36;18.40;74.30
22108;DHT22;11220;48.812;9.128;2023-04-20T14:29:02;18.60;74.40
22108;DHT22;11220;48.812;9.128;2023-04-20T14:31:29;18.30;74.20
22108;DHT22;11220;48.812;9.128;2023-04-20T14:33:55;18.30;74.30
22108;DHT22;11220;48.812;9.128;2023-04-20T14:36:20;18.30;74.30
22108;DHT22;11220;48.812;9.128;2023-04-20T14:38:46;18.30;74.40
22108;DHT22;11220;48.812;9.128;2023-04-20T14:41:11;18.50;74.40
22108;DHT22;11220;48.812;9.128;2023-04-20T14:43:37;18.20;74.30
22108;DHT22;11220;48.812;9.128;2023-04-20T14:46:06;18.30;74.40
22108;DHT22;11220;48.812;9.128;2023-04-20T14:48:32;18.30;74.40
22108;DHT22;11220;48.812;9.128;2023-04-20T14:50:57;18.80;74.80
22108;DHT22;11220;48.812;9.128;2023-04-20T14:53:23;18.70;74.70
22108;DHT22;11220;48.812;9.128;2023-04-20T14:55:48;18.30;74.50
22108;DHT22;11220;48.812;9.128;2023-04-20T14:58:18;18.30;74.60
22108;DHT22;11220;48.812;9.128;2023-04-20T15:00:44;18.80;74.80
22108;DHT22;11220;48.812;9.128;2023-04-20T15:03:10;18.30;74.60
22108;DHT22;11220;48.812;9.128;2023-04-20T15:05:36;18.30;74.60
22108;DHT22;11220;48.812;9.128;2023-04-20T15:08:02;18.20;74.50
22108;DHT22;11220;48.812;9.128;2023-04-20T15:10:27;18.70;74.90
22108;DHT22;11220;48.812;9.128;2023-04-20T15:12:53;18.30;74.70
22108;DHT22;11220;48.812;9.128;2023-04-20T15:15:18;18.50;74.80
22108;DHT22;11220;48.812;9.128;2023-04-20T15:17:44;18.20;74.60
22108;DHT22;11220;48.812;9.128;2023-04-20T15:20:14;18.20;74.70
22108;DHT22;11220;48.812;9.128;2023-04-20T15:22:40;18.20;74.70
22108;DHT22;11220;48.812;9.128;2023-04-20T15:25:06;18.20;74.70
22108;DHT22;11220;48.812;9.128;2023-04-20T15:27:32;18.20;74.70